sensor_id;sensor_type;location;lat;lon;timestamp;pressure;altitude;pressure_sealevel;temperature;humidity
14067;BME280;7108;42.684;23.350;2023-01-27T00:00:12;94553.63;;;2.17;100.00
14067;BME280;7108;42.684;23.350;2023-01-27T00:02:38;94545.13;;;2.24;100.00
14067;BME280;7108;42.684;23.350;2023-01-27T00:05:04;94542.00;;;2.22;100.00
14067;BME280;7108;42.684;23.350;2023-01-27T00:07:29;94554.66;;;2.25;100.00
14067;BME280;7108;42.684;23.350;2023-01-27T00:09:55;94549.22;;;2.21;100.00
14067;BME280;7108;42.684;23.350;2023-01-27T00:12:23;94526.56;;;2.15;100.00
14067;BME280;7108;42.684;23.350;2023-01-27T00:15:08;94528.56;;;2.18;100.00
14067;BME280;7108;42.684;23.350;2023-01-27T00:17:35;94548.03;;;2.31;100.00
14067;BME280;7108;42.684;23.350;2023-01-27T00:20:00;94541.13;;;2.38;100.00
14067;BME280;7108;42.684;23.350;2023-01-27T00:22:26;94539.63;;;2.29;100.00
14067;BME280;7108;42.684;23.350;2023-01-27T00:25:10;94515.53;;;2.34;100.00
14067;BME280;7108;42.684;23.350;2023-01-27T00:27:36;94492.88;;;2.28;100.00
14067;BME280;7108;42.684;23.350;2023-01-27T00:30:01;94509.28;;;2.30;100.00
14067;BME280;7108;42.684;23.350;2023-01-27T00:32:29;94515.66;;;2.37;100.00
14067;BME280;7108;42.684;23.350;2023-01-27T00:35:14;94503.25;;;2.21;100.00
14067;BME280;7108;42.684;23.350;2023-01-27T00:37:41;94515.38;;;2.30;100.00
14067;BME280;7108;42.684;23.350;2023-01-27T00:40:07;94513.25;;;2.24;100.00
14067;BME280;7108;42.684;23.350;2023-01-27T00:42:33;94506.84;;;2.25;100.00
14067;BME280;7108;42.684;23.350;2023-01-27T00:44:58;94508.56;;;2.21;100.00
14067;BME280;7108;42.684;23.350;2023-01-27T00:47:42;94502.28;;;2.25;100.00
14067;BME280;7108;42.684;23.350;2023-01-27T00:50:08;94532.22;;;2.34;100.00
14067;BME280;7108;42.684;23.350;2023-01-27T00:52:34;94533.47;;;2.37;100.00
14067;BME280;7108;42.684;23.350;2023-01-27T00:54:59;94529.94;;;2.24;100.00
14067;BME280;7108;42.684;23.350;2023-01-27T00:57:24;94506.56;;;2.18;100.00
14067;BME280;7108;42.684;23.350;2023-01-27T00:59:50;94527.72;;;2.35;100.00
14067;BME280;7108;42.684;23.350;2023-01-27T01:02:15;94515.53;;;2.34;100.00
14067;BME280;7108;42.684;23.350;2023-01-27T01:04:41;94513.91;;;2.41;100.00
14067;BME280;7108;42.684;23.350;2023-01-27T01:07:06;94515.66;;;2.37;100.00
14067;BME280;7108;42.684;23.350;2023-01-27T01:09:31;94521.41;;;2.39;100.00
14067;BME280;7108;42.684;23.350;2023-01-27T01:11:57;94513.13;;;2.41;100.00
14067;BME280;7108;42.684;23.350;2023-01-27T01:14:22;94513.13;;;2.41;100.00
14067;BME280;7108;42.684;23.350;2023-01-27T01:16:48;94500.03;;;2.36;100.00
14067;BME280;7108;42.684;23.350;2023-01-27T01:19:13;94526.84;;;2.43;100.00
14067;BME280;7108;42.684;23.350;2023-01-27T01:21:39;94517.41;;;2.33;100.00
14067;BME280;7108;42.684;23.350;2023-01-27T01:24:04;94527.53;;;2.40;100.00
14067;BME280;7108;42.684;23.350;2023-01-27T01:26:30;94524.53;;;2.41;100.00
14067;BME280;7108;42.684;23.350;2023-01-27T01:28:55;94499.63;;;2.25;100.00
14067;BME280;7108;42.684;23.350;2023-01-27T01:31:21;94478.03;;;2.27;100.00
14067;BME280;7108;42.684;23.350;2023-01-27T01:33:47;94515.69;;;2.49;100.00
14067;BME280;7108;42.684;23.350;2023-01-27T01:36:15;94518.75;;;2.39;100.00
14067;BME280;7108;42.684;23.350;2023-01-27T01:38:41;94528.28;;;2.40;100.00
14067;BME280;7108;42.684;23.350;2023-01-27T01:41:10;94539.81;;;2.44;100.00
14067;BME280;7108;42.684;23.350;2023-01-27T01:43:36;94536.31;;;2.32;100.00
14067;BME280;7108;42.684;23.350;2023-01-27T01:46:02;94538.66;;;2.33;100.00
14067;BME280;7108;42.684;23.350;2023-01-27T01:48:42;94541.84;;;2.47;100.00
14067;BME280;7108;42.684;23.350;2023-01-27T01:51:29;94538.88;;;2.49;100.00
14067;BME280;7108;42.684;23.350;2023-01-27T01:56:36;94502.88;;;2.51;100.00
14067;BME280;7108;42.684;23.350;2023-01-27T01:59:08;94492.91;;;2.48;100.00
14067;BME280;7108;42.684;23.350;2023-01-27T02:01:35;94495.88;;;2.47;100.00
14067;BME280;7108;42.684;23.350;2023-01-27T02:04:04;94496.47;;;2.52;100.00
14067;BME280;7108;42.684;23.350;2023-01-27T02:06:39;94482.88;;;2.33;100.00
14067;BME280;7108;42.684;23.350;2023-01-27T02:09:06;94488.47;;;2.32;100.00
14067;BME280;7108;42.684;23.350;2023-01-27T02:11:32;94483.16;;;2.32;100.00
14067;BME280;7108;42.684;23.350;2023-01-27T02:13:59;94483.03;;;2.28;100.00
14067;BME280;7108;42.684;23.350;2023-01-27T02:16:26;94470.97;;;2.31;100.00
14067;BME280;7108;42.684;23.350;2023-01-27T02:18:51;94457.19;;;2.37;100.00
14067;BME280;7108;42.684;23.350;2023-01-27T02:21:17;94450.69;;;2.26;100.00
14067;BME280;7108;42.684;23.350;2023-01-27T02:23:57;94453.72;;;2.37;100.00
14067;BME280;7108;42.684;23.350;2023-01-27T02:26:29;94457.69;;;2.51;100.00
14067;BME280;7108;42.684;23.350;2023-01-27T02:29:11;94456.19;;;2.42;100.00
14067;BME280;7108;42.684;23.350;2023-01-27T02:31:37;94467.75;;;2.46;100.00
14067;BME280;7108;42.684;23.350;2023-01-27T02:34:06;94442.66;;;2.35;100.00
14067;BME280;7108;42.684;23.350;2023-01-27T02:36:38;94454.38;;;2.13;100.00
14067;BME280;7108;42.684;23.350;2023-01-27T02:39:06;94466.38;;;2.19;100.00
14067;BME280;7108;42.684;23.350;2023-01-27T02:41:36;94454.41;;;2.34;100.00
14067;BME280;7108;42.684;23.350;2023-01-27T02:44:03;94463.06;;;2.43;100.00
14067;BME280;7108;42.684;23.350;2023-01-27T02:46:29;94456.72;;;2.35;100.00
14067;BME280;7108;42.684;23.350;2023-01-27T02:48:54;94452.25;;;2.27;100.00
14067;BME280;7108;42.684;23.350;2023-01-27T02:51:20;94456.72;;;2.35;100.00
14067;BME280;7108;42.684;23.350;2023-01-27T02:53:46;94451.34;;;2.23;100.00
14067;BME280;7108;42.684;23.350;2023-01-27T02:56:12;94472.41;;;2.28;100.00
14067;BME280;7108;42.684;23.350;2023-01-27T02:58:37;94478.25;;;2.42;100.00
14067;BME280;7108;42.684;23.350;2023-01-27T03:01:03;94476.34;;;2.43;100.00
14067;BME280;7108;42.684;23.350;2023-01-27T03:03:29;94432.69;;;2.11;100.00
14067;BME280;7108;42.684;23.350;2023-01-27T03:05:54;94453.34;;;2.26;100.00
14067;BME280;7108;42.684;23.350;2023-01-27T03:08:23;94454.41;;;2.34;100.00
14067;BME280;7108;42.684;23.350;2023-01-27T03:10:49;94456.19;;;2.42;100.00
14067;BME280;7108;42.684;23.350;2023-01-27T03:13:15;94447.72;;;2.28;100.00
14067;BME280;7108;42.684;23.350;2023-01-27T03:15:41;94449.53;;;2.36;100.00
14067;BME280;7108;42.684;23.350;2023-01-27T03:18:25;94446.56;;;2.37;100.00
14067;BME280;7108;42.684;23.350;2023-01-27T03:20:50;94443.22;;;2.40;100.00
14067;BME280;7108;42.684;23.350;2023-01-27T03:23:17;94425.16;;;2.34;100.00
14067;BME280;7108;42.684;23.350;2023-01-27T03:25:45;94417.06;;;2.30;100.00
14067;BME280;7108;42.684;23.350;2023-01-27T03:28:12;94431.78;;;2.48;100.00
14067;BME280;7108;42.684;23.350;2023-01-27T03:30:37;94419.25;;;2.49;100.00
14067;BME280;7108;42.684;23.350;2023-01-27T03:33:04;94411.69;;;2.39;100.00
14067;BME280;7108;42.684;23.350;2023-01-27T03:35:31;94411.81;;;2.42;100.00
14067;BME280;7108;42.684;23.350;2023-01-27T03:38:05;94412.38;;;2.48;100.00
14067;BME280;7108;42.684;23.350;2023-01-27T03:40:49;94408.34;;;2.42;100.00
14067;BME280;7108;42.684;23.350;2023-01-27T03:43:33;94387.38;;;2.28;100.00
14067;BME280;7108;42.684;23.350;2023-01-27T03:46:17;94402.81;;;2.14;100.00
14067;BME280;7108;42.684;23.350;2023-01-27T03:48:50;94391.41;;;1.73;100.00
14067;BME280;7108;42.684;23.350;2023-01-27T03:51:16;94386.47;;;1.84;100.00
14067;BME280;7108;42.684;23.350;2023-01-27T03:53:42;94392.69;;;1.88;100.00
14067;BME280;7108;42.684;23.350;2023-01-27T03:56:08;94394.66;;;1.99;100.00
14067;BME280;7108;42.684;23.350;2023-01-27T03:58:35;94389.47;;;2.02;100.00
14067;BME280;7108;42.684;23.350;2023-01-27T04:01:03;94397.97;;;2.16;100.00
14067;BME280;7108;42.684;23.350;2023-01-27T04:03:31;94401.44;;;2.08;100.00
14067;BME280;7108;42.684;23.350;2023-01-27T04:06:19;94423.72;;;2.16;100.00
14067;BME280;7108;42.684;23.350;2023-01-27T04:09:05;94421.47;;;2.06;100.00
14067;BME280;7108;42.684;23.350;2023-01-27T04:11:31;94434.69;;;2.14;100.00
14067;BME280;7108;42.684;23.350;2023-01-27T04:14:15;94462.75;;;2.24;100.00
14067;BME280;7108;42.684;23.350;2023-01-27T04:16:41;94458.16;;;2.12;100.00
14067;BME280;7108;42.684;23.350;2023-01-27T04:19:08;94481.78;;;2.26;100.00
14067;BME280;7108;42.684;23.350;2023-01-27T04:21:33;94463.97;;;2.06;100.00
14067;BME280;7108;42.684;23.350;2023-01-27T04:23:59;94453.41;;;2.18;100.00
14067;BME280;7108;42.684;23.350;2023-01-27T04:26:26;94468.31;;;2.31;100.00
14067;BME280;7108;42.684;23.350;2023-01-27T04:28:58;94447.63;;;2.16;100.00
14067;BME280;7108;42.684;23.350;2023-01-27T04:31:24;94487.09;;;2.26;100.00
14067;BME280;7108;42.684;23.350;2023-01-27T04:33:49;94467.00;;;1.96;100.00
14067;BME280;7108;42.684;23.350;2023-01-27T04:36:15;94476.91;;;2.07;100.00
14067;BME280;7108;42.684;23.350;2023-01-27T04:38:41;94485.56;;;2.25;100.00
14067;BME280;7108;42.684;23.350;2023-01-27T04:41:06;94466.69;;;2.18;100.00
14067;BME280;7108;42.684;23.350;2023-01-27T04:43:32;94503.50;;;2.28;100.00
14067;BME280;7108;42.684;23.350;2023-01-27T04:45:57;94487.09;;;2.26;100.00
14067;BME280;7108;42.684;23.350;2023-01-27T04:48:23;94482.25;;;2.28;100.00
14067;BME280;7108;42.684;23.350;2023-01-27T04:50:48;94456.78;;;2.27;100.00
14067;BME280;7108;42.684;23.350;2023-01-27T04:53:13;94468.31;;;2.31;100.00
14067;BME280;7108;42.684;23.350;2023-01-27T04:55:41;94456.53;;;2.20;100.00
14067;BME280;7108;42.684;23.350;2023-01-27T04:58:09;94483.81;;;2.29;100.00
14067;BME280;7108;42.684;23.350;2023-01-27T05:00:36;94466.25;;;2.16;100.00
14067;BME280;7108;42.684;23.350;2023-01-27T05:03:02;94462.28;;;2.22;100.00
14067;BME280;7108;42.684;23.350;2023-01-27T05:05:30;94503.06;;;2.46;100.00
14067;BME280;7108;42.684;23.350;2023-01-27T05:07:56;94487.66;;;2.40;100.00
14067;BME280;7108;42.684;23.350;2023-01-27T05:10:21;94451.53;;;2.18;100.00
14067;BME280;7108;42.684;23.350;2023-01-27T05:12:47;94501.31;;;2.30;100.00
14067;BME280;7108;42.684;23.350;2023-01-27T05:15:12;94465.34;;;2.12;100.00
14067;BME280;7108;42.684;23.350;2023-01-27T05:17:38;94492.94;;;2.19;100.00
14067;BME280;7108;42.684;23.350;2023-01-27T05:20:03;94484.72;;;2.33;100.00
14067;BME280;7108;42.684;23.350;2023-01-27T05:22:29;94467.16;;;2.20;100.00
14067;BME280;7108;42.684;23.350;2023-01-27T05:24:54;94480.63;;;2.35;100.00
14067;BME280;7108;42.684;23.350;2023-01-27T05:27:20;94484.00;;;2.44;100.00
14067;BME280;7108;42.684;23.350;2023-01-27T05:29:45;94461.06;;;2.19;100.00
14067;BME280;7108;42.684;23.350;2023-01-27T05:32:10;94468.50;;;2.26;100.00
14067;BME280;7108;42.684;23.350;2023-01-27T05:34:36;94444.91;;;1.84;100.00
14067;BME280;7108;42.684;23.350;2023-01-27T05:37:01;94455.34;;;1.89;100.00
14067;BME280;7108;42.684;23.350;2023-01-27T05:39:27;94465.94;;;1.89;100.00
14067;BME280;7108;42.684;23.350;2023-01-27T05:41:52;94476.81;;;2.04;100.00
14067;BME280;7108;42.684;23.350;2023-01-27T05:44:18;94435.94;;;1.96;100.00
14067;BME280;7108;42.684;23.350;2023-01-27T05:46:43;94428.34;;;1.87;100.00
14067;BME280;7108;42.684;23.350;2023-01-27T05:49:09;94461.63;;;2.04;100.00
14067;BME280;7108;42.684;23.350;2023-01-27T05:51:36;94470.25;;;2.01;100.00
14067;BME280;7108;42.684;23.350;2023-01-27T05:54:04;94476.72;;;1.92;100.00
14067;BME280;7108;42.684;23.350;2023-01-27T05:56:29;94477.22;;;1.86;100.00
14067;BME280;7108;42.684;23.350;2023-01-27T05:58:56;94460.63;;;1.68;100.00
14067;BME280;7108;42.684;23.350;2023-01-27T06:01:27;94475.22;;;1.54;100.00
14067;BME280;7108;42.684;23.350;2023-01-27T06:03:53;94485.31;;;1.60;100.00
14067;BME280;7108;42.684;23.350;2023-01-27T06:06:20;94489.69;;;1.65;100.00
14067;BME280;7108;42.684;23.350;2023-01-27T06:08:46;94463.56;;;1.38;100.00
14067;BME280;7108;42.684;23.350;2023-01-27T06:11:13;94478.91;;;1.61;100.00
14067;BME280;7108;42.684;23.350;2023-01-27T06:13:39;94465.69;;;1.53;100.00
14067;BME280;7108;42.684;23.350;2023-01-27T06:16:10;94468.16;;;1.58;100.00
14067;BME280;7108;42.684;23.350;2023-01-27T06:18:37;94483.59;;;1.56;100.00
14067;BME280;7108;42.684;23.350;2023-01-27T06:21:04;94477.22;;;1.57;100.00
14067;BME280;7108;42.684;23.350;2023-01-27T06:23:30;94461.84;;;1.33;100.00
14067;BME280;7108;42.684;23.350;2023-01-27T06:26:01;94500.53;;;1.43;100.00
14067;BME280;7108;42.684;23.350;2023-01-27T06:28:27;94479.69;;;1.25;100.00
14067;BME280;7108;42.684;23.350;2023-01-27T06:30:53;94483.06;;;1.42;100.00
14067;BME280;7108;42.684;23.350;2023-01-27T06:33:18;94466.84;;;1.35;100.00
14067;BME280;7108;42.684;23.350;2023-01-27T06:35:44;94505.88;;;1.34;100.00
14067;BME280;7108;42.684;23.350;2023-01-27T06:38:11;94491.31;;;1.49;100.00
14067;BME280;7108;42.684;23.350;2023-01-27T06:40:38;94464.69;;;1.28;100.00
14067;BME280;7108;42.684;23.350;2023-01-27T06:43:04;94493.16;;;1.48;100.00
14067;BME280;7108;42.684;23.350;2023-01-27T06:45:29;94500.03;;;1.49;100.00
14067;BME280;7108;42.684;23.350;2023-01-27T06:47:56;94489.81;;;1.31;100.00
14067;BME280;7108;42.684;23.350;2023-01-27T06:50:23;94500.41;;;1.31;100.00
14067;BME280;7108;42.684;23.350;2023-01-27T06:52:50;94484.53;;;1.23;100.00
14067;BME280;7108;42.684;23.350;2023-01-27T06:55:16;94497.59;;;1.27;100.00
14067;BME280;7108;42.684;23.350;2023-01-27T06:57:44;94469.63;;;0.93;100.00
14067;BME280;7108;42.684;23.350;2023-01-27T07:00:13;94518.38;;;1.26;100.00
14067;BME280;7108;42.684;23.350;2023-01-27T07:02:39;94523.66;;;1.42;100.00
14067;BME280;7108;42.684;23.350;2023-01-27T07:05:04;94520.31;;;1.54;100.00
14067;BME280;7108;42.684;23.350;2023-01-27T07:07:30;94513.91;;;1.63;100.00
14067;BME280;7108;42.684;23.350;2023-01-27T07:09:55;94473.94;;;1.14;100.00
14067;BME280;7108;42.684;23.350;2023-01-27T07:12:21;94532.97;;;1.48;100.00
14067;BME280;7108;42.684;23.350;2023-01-27T07:14:46;94522.81;;;1.50;100.00
14067;BME280;7108;42.684;23.350;2023-01-27T07:17:11;94514.34;;;1.65;100.00
14067;BME280;7108;42.684;23.350;2023-01-27T07:19:40;94492.94;;;1.62;100.00
14067;BME280;7108;42.684;23.350;2023-01-27T07:22:05;94491.09;;;1.62;100.00
14067;BME280;7108;42.684;23.350;2023-01-27T07:24:31;94489.56;;;1.82;100.00
14067;BME280;7108;42.684;23.350;2023-01-27T07:26:56;94506.59;;;1.89;100.00
14067;BME280;7108;42.684;23.350;2023-01-27T07:29:21;94496.47;;;1.74;100.00
14067;BME280;7108;42.684;23.350;2023-01-27T07:31:47;94487.34;;;1.63;100.00
14067;BME280;7108;42.684;23.350;2023-01-27T07:34:12;94475.72;;;1.47;100.00
14067;BME280;7108;42.684;23.350;2023-01-27T07:36:38;94498.41;;;1.65;100.00
14067;BME280;7108;42.684;23.350;2023-01-27T07:39:03;94511.53;;;1.62;100.00
14067;BME280;7108;42.684;23.350;2023-01-27T07:41:29;94516.47;;;1.72;100.00
14067;BME280;7108;42.684;23.350;2023-01-27T07:43:54;94510.88;;;1.73;100.00
14067;BME280;7108;42.684;23.350;2023-01-27T07:46:19;94494.50;;;1.63;100.00
14067;BME280;7108;42.684;23.350;2023-01-27T07:48:45;94483.34;;;1.49;100.00
14067;BME280;7108;42.684;23.350;2023-01-27T07:51:12;94511.78;;;1.77;100.00
14067;BME280;7108;42.684;23.350;2023-01-27T07:53:38;94491.91;;;1.54;100.00
14067;BME280;7108;42.684;23.350;2023-01-27T07:56:04;94502.19;;;1.56;100.00
14067;BME280;7108;42.684;23.350;2023-01-27T07:58:30;94505.16;;;1.54;100.00
14067;BME280;7108;42.684;23.350;2023-01-27T08:00:55;94517.78;;;1.66;100.00
14067;BME280;7108;42.684;23.350;2023-01-27T08:03:23;94512.28;;;1.71;100.00
14067;BME280;7108;42.684;23.350;2023-01-27T08:05:50;94509.22;;;1.60;100.00
14067;BME280;7108;42.684;23.350;2023-01-27T08:08:16;94510.94;;;1.56;100.00
14067;BME280;7108;42.684;23.350;2023-01-27T08:10:43;94494.72;;;1.49;100.00
14067;BME280;7108;42.684;23.350;2023-01-27T08:13:11;94502.09;;;1.44;100.00
14067;BME280;7108;42.684;23.350;2023-01-27T08:15:37;94513.44;;;1.53;100.00
14067;BME280;7108;42.684;23.350;2023-01-27T08:18:03;94507.59;;;1.68;100.00
14067;BME280;7108;42.684;23.350;2023-01-27T08:20:28;94505.06;;;1.80;100.00
14067;BME280;7108;42.684;23.350;2023-01-27T08:22:54;94500.63;;;1.63;100.00
14067;BME280;7108;42.684;23.350;2023-01-27T08:25:20;94502.81;;;1.61;100.00
14067;BME280;7108;42.684;23.350;2023-01-27T08:27:51;94518.19;;;1.76;100.00
14067;BME280;7108;42.684;23.350;2023-01-27T08:30:17;94510.97;;;1.85;100.00
14067;BME280;7108;42.684;23.350;2023-01-27T08:32:43;94506.84;;;1.67;100.00
14067;BME280;7108;42.684;23.350;2023-01-27T08:35:11;94489.75;;;1.77;100.00
14067;BME280;7108;42.684;23.350;2023-01-27T08:37:36;94505.16;;;1.92;100.00
14067;BME280;7108;42.684;23.350;2023-01-27T08:40:02;94516.84;;;1.62;100.00
14067;BME280;7108;42.684;23.350;2023-01-27T08:42:28;94499.59;;;1.47;100.00
14067;BME280;7108;42.684;23.350;2023-01-27T08:44:53;94526.91;;;1.48;100.00
14067;BME280;7108;42.684;23.350;2023-01-27T08:47:19;94518.03;;;1.35;100.00
14067;BME280;7108;42.684;23.350;2023-01-27T08:49:44;94509.16;;;1.31;100.00
14067;BME280;7108;42.684;23.350;2023-01-27T08:52:10;94512.75;;;1.27;100.00
14067;BME280;7108;42.684;23.350;2023-01-27T08:54:36;94507.63;;;1.22;100.00
14067;BME280;7108;42.684;23.350;2023-01-27T08:57:01;94498.13;;;1.13;100.00
14067;BME280;7108;42.684;23.350;2023-01-27T08:59:26;94516.19;;;1.27;100.00
14067;BME280;7108;42.684;23.350;2023-01-27T09:01:52;94508.34;;;1.39;100.00
14067;BME280;7108;42.684;23.350;2023-01-27T09:04:17;94520.03;;;1.47;100.00
14067;BME280;7108;42.684;23.350;2023-01-27T09:06:44;94514.72;;;1.47;100.00
14067;BME280;7108;42.684;23.350;2023-01-27T09:09:12;94506.13;;;1.50;100.00
14067;BME280;7108;42.684;23.350;2023-01-27T09:11:42;94507.06;;;1.54;100.00
14067;BME280;7108;42.684;23.350;2023-01-27T09:14:08;94503.66;;;1.45;100.00
14067;BME280;7108;42.684;23.350;2023-01-27T09:16:42;94513.66;;;1.39;100.00
14067;BME280;7108;42.684;23.350;2023-01-27T09:19:08;94518.97;;;1.39;100.00
14067;BME280;7108;42.684;23.350;2023-01-27T09:21:33;94468.00;;;1.17;100.00
14067;BME280;7108;42.684;23.350;2023-01-27T09:23:59;94503.00;;;1.48;100.00
14067;BME280;7108;42.684;23.350;2023-01-27T09:26:24;94503.78;;;1.48;100.00
14067;BME280;7108;42.684;23.350;2023-01-27T09:28:50;94498.78;;;1.47;100.00
14067;BME280;7108;42.684;23.350;2023-01-27T09:31:15;94506.13;;;1.50;100.00
14067;BME280;7108;42.684;23.350;2023-01-27T09:33:41;94493.03;;;1.45;100.00
14067;BME280;7108;42.684;23.350;2023-01-27T09:36:19;94492.94;;;1.62;100.00
14067;BME280;7108;42.684;23.350;2023-01-27T09:38:58;94475.16;;;1.62;100.00
14067;BME280;7108;42.684;23.350;2023-01-27T09:55:48;94476.84;;;1.67;100.00
14067;BME280;7108;42.684;23.350;2023-01-27T10:11:31;94442.88;;;1.52;100.00
14067;BME280;7108;42.684;23.350;2023-01-27T10:14:18;94455.53;;;1.55;100.00
14067;BME280;7108;42.684;23.350;2023-01-27T10:17:25;94461.44;;;1.60;100.00
14067;BME280;7108;42.684;23.350;2023-01-27T10:20:09;94441.31;;;1.51;100.00
14067;BME280;7108;42.684;23.350;2023-01-27T10:22:46;94466.03;;;1.72;100.00
14067;BME280;7108;42.684;23.350;2023-01-27T10:25:35;94463.53;;;1.75;100.00
14067;BME280;7108;42.684;23.350;2023-01-27T10:28:13;94465.81;;;1.85;100.00
14067;BME280;7108;42.684;23.350;2023-01-27T10:31:04;94464.09;;;1.89;100.00
14067;BME280;7108;42.684;23.350;2023-01-27T10:33:54;94460.97;;;1.87;100.00
14067;BME280;7108;42.684;23.350;2023-01-27T10:36:29;94452.50;;;1.65;100.00
14067;BME280;7108;42.684;23.350;2023-01-27T10:39:15;94449.66;;;1.41;100.00
14067;BME280;7108;42.684;23.350;2023-01-27T10:47:00;94462.31;;;1.35;100.00
14067;BME280;7108;42.684;23.350;2023-01-27T10:49:54;94452.16;;;1.37;100.00
14067;BME280;7108;42.684;23.350;2023-01-27T10:52:44;94440.31;;;1.35;100.00
14067;BME280;7108;42.684;23.350;2023-01-27T10:55:24;94448.16;;;1.31;100.00
14067;BME280;7108;42.684;23.350;2023-01-27T10:58:00;94438.97;;;1.21;100.00
14067;BME280;7108;42.684;23.350;2023-01-27T11:00:31;94446.59;;;1.30;100.00
14067;BME280;7108;42.684;23.350;2023-01-27T11:03:20;94451.53;;;1.40;100.00
14067;BME280;7108;42.684;23.350;2023-01-27T11:05:53;94434.53;;;1.41;100.00
14067;BME280;7108;42.684;23.350;2023-01-27T11:08:33;94434.78;;;1.48;100.00
14067;BME280;7108;42.684;23.350;2023-01-27T11:11:02;94421.41;;;1.45;100.00
14067;BME280;7108;42.684;23.350;2023-01-27T11:13:48;94443.50;;;1.57;100.00
14067;BME280;7108;42.684;23.350;2023-01-27T11:16:16;94450.94;;;1.64;100.00
14067;BME280;7108;42.684;23.350;2023-01-27T11:18:43;94430.53;;;1.56;100.00
14067;BME280;7108;42.684;23.350;2023-01-27T11:21:17;94413.56;;;1.48;100.00
14067;BME280;7108;42.684;23.350;2023-01-27T11:23:48;94405.81;;;1.35;100.00
14067;BME280;7108;42.684;23.350;2023-01-27T11:34:11;94421.00;;;1.63;100.00
14067;BME280;7108;42.684;23.350;2023-01-27T11:36:40;94384.53;;;1.43;100.00
14067;BME280;7108;42.684;23.350;2023-01-27T11:39:07;94415.06;;;1.58;100.00
14067;BME280;7108;42.684;23.350;2023-01-27T11:41:37;94425.22;;;1.56;100.00
14067;BME280;7108;42.684;23.350;2023-01-27T11:44:16;94416.97;;;1.57;100.00
14067;BME280;7108;42.684;23.350;2023-01-27T11:46:44;94411.47;;;1.62;100.00
14067;BME280;7108;42.684;23.350;2023-01-27T11:49:11;94429.53;;;1.69;100.00
14067;BME280;7108;42.684;23.350;2023-01-27T11:51:40;94402.00;;;1.53;100.00
14067;BME280;7108;42.684;23.350;2023-01-27T11:54:24;94418.16;;;1.68;100.00
14067;BME280;7108;42.684;23.350;2023-01-27T11:56:51;94414.38;;;1.69;100.00
14067;BME280;7108;42.684;23.350;2023-01-27T11:59:27;94416.91;;;1.66;100.00
14067;BME280;7108;42.684;23.350;2023-01-27T12:02:00;94421.09;;;1.67;100.00
14067;BME280;7108;42.684;23.350;2023-01-27T12:04:47;94415.16;;;1.70;100.00
14067;BME280;7108;42.684;23.350;2023-01-27T12:09:56;94418.63;;;1.62;100.00
14067;BME280;7108;42.684;23.350;2023-01-27T12:12:26;94419.91;;;1.56;100.00
14067;BME280;7108;42.684;23.350;2023-01-27T12:14:59;94415.50;;;1.68;100.00
14067;BME280;7108;42.684;23.350;2023-01-27T12:17:40;94416.25;;;1.69;100.00
14067;BME280;7108;42.684;23.350;2023-01-27T12:23:21;94417.03;;;1.69;100.00
14067;BME280;7108;42.684;23.350;2023-01-27T12:25:58;94417.31;;;1.76;100.00
14067;BME280;7108;42.684;23.350;2023-01-27T12:30:51;94401.03;;;1.57;100.00
14067;BME280;7108;42.684;23.350;2023-01-27T12:33:28;94423.34;;;1.56;100.00
14067;BME280;7108;42.684;23.350;2023-01-27T12:35:58;94411.03;;;1.52;100.00
14067;BME280;7108;42.684;23.350;2023-01-27T12:38:27;94427.63;;;1.49;100.00
14067;BME280;7108;42.684;23.350;2023-01-27T12:41:06;94409.38;;;1.47;100.00
14067;BME280;7108;42.684;23.350;2023-01-27T12:43:49;94400.41;;;1.52;100.00
14067;BME280;7108;42.684;23.350;2023-01-27T12:46:28;94397.97;;;1.47;100.00
14067;BME280;7108;42.684;23.350;2023-01-27T12:49:08;94416.53;;;1.47;100.00
14067;BME280;7108;42.684;23.350;2023-01-27T12:51:42;94404.75;;;1.27;100.00
14067;BME280;7108;42.684;23.350;2023-01-27T12:54:15;94426.72;;;1.45;100.00
14067;BME280;7108;42.684;23.350;2023-01-27T12:56:41;94428.56;;;1.44;100.00
14067;BME280;7108;42.684;23.350;2023-01-27T12:59:13;94421.25;;;1.41;100.00
14067;BME280;7108;42.684;23.350;2023-01-27T13:01:40;94396.88;;;1.19;100.00
14067;BME280;7108;42.684;23.350;2023-01-27T13:04:20;94411.31;;;1.30;100.00
14067;BME280;7108;42.684;23.350;2023-01-27T13:06:54;94408.78;;;1.33;100.00
14067;BME280;7108;42.684;23.350;2023-01-27T13:11:46;94414.75;;;1.30;100.00
14067;BME280;7108;42.684;23.350;2023-01-27T13:14:18;94417.56;;;1.34;100.00
14067;BME280;7108;42.684;23.350;2023-01-27T13:16:53;94419.09;;;1.35;100.00
14067;BME280;7108;42.684;23.350;2023-01-27T13:19:38;94408.47;;;1.35;100.00
14067;BME280;7108;42.684;23.350;2023-01-27T13:22:05;94400.09;;;1.25;100.00
14067;BME280;7108;42.684;23.350;2023-01-27T13:24:39;94412.97;;;1.43;100.00
14067;BME280;7108;42.684;23.350;2023-01-27T13:27:18;94423.97;;;1.53;100.00
14067;BME280;7108;42.684;23.350;2023-01-27T13:29:53;94422.72;;;1.59;100.00
14067;BME280;7108;42.684;23.350;2023-01-27T13:32:27;94423.69;;;1.55;100.00
14067;BME280;7108;42.684;23.350;2023-01-27T13:37:49;94410.50;;;1.38;100.00
14067;BME280;7108;42.684;23.350;2023-01-27T13:40:22;94409.84;;;1.41;100.00
14067;BME280;7108;42.684;23.350;2023-01-27T13:48:20;94427.81;;;1.64;100.00
14067;BME280;7108;42.684;23.350;2023-01-27T13:50:52;94423.28;;;1.73;100.00
14067;BME280;7108;42.684;23.350;2023-01-27T13:53:21;94432.31;;;1.72;100.00
14067;BME280;7108;42.684;23.350;2023-01-27T14:01:38;94436.06;;;1.71;100.00
14067;BME280;7108;42.684;23.350;2023-01-27T14:07:33;94437.88;;;1.79;100.00
14067;BME280;7108;42.684;23.350;2023-01-27T14:18:40;94441.47;;;1.83;100.00
14067;BME280;7108;42.684;23.350;2023-01-27T14:29:52;94460.22;;;1.87;100.00
14067;BME280;7108;42.684;23.350;2023-01-27T14:43:29;94456.38;;;1.76;100.00
14067;BME280;7108;42.684;23.350;2023-01-27T14:49:27;94445.00;;;1.67;100.00
14067;BME280;7108;42.684;23.350;2023-01-27T14:55:06;94467.28;;;1.74;100.00
14067;BME280;7108;42.684;23.350;2023-01-27T15:08:19;94478.44;;;1.59;100.00